MyFlightRoute - Storm Chaser


To sort multiple columns, hold SHIFT key while clicking column header

ICAOVisibilityWindSpeedGustCeilingWeatherTempDew PointSpreadFlight CategoryMETAR
KABQ10.001928 17.801.7016.1VFRKABQ 211552Z 10019G28KT 10SM CLR 18/02 A3049 RMK AO2 PK WND 09031/1539 SLP255 T01780017
KAMA10.001829 950017.206.1011.1VFRKAMA 211553Z 03018G29KT 10SM BKN095 17/06 A3047 RMK AO2 PK WND 02029/1548 SLP280 T01720061
KAPA10.005 10.001.708.3VFRKAPA 211553Z 35005KT 10SM FEW080 FEW200 10/02 A3059 RMK AO2 SLP342 T01000017
KASE10.004 8.90-5.0013.9VFRKASE 211553Z 33004KT 10SM CLR 09/M05 A3057 RMK AO2 SLP294 T00891050
KBFI10.000 13.909.404.5VFRKBFI 211553Z 00000KT 10SM CLR 14/09 A3023 RMK AO2 SLP235 T01390094
KBFL6.000 HAZE SMOKE 23.9010.0013.9VFRKBFL 211554Z 00000KT 6SM HZ FU CLR 24/10 A3009 RMK AO2 SLP185 T02390100
KBIL10.0013 10.600.0010.6VFRKBIL 211553Z 24013KT 10SM FEW180 11/00 A3039 RMK AO2 SLP292 T01060000
KBOI10.008 14.401.1013.3VFRKBOI 211553Z 13008KT 10SM CLR 14/01 A3045 RMK AO2 SLP302 T01440011
KBUR10.000 21.7013.907.8VFRKBUR 211553Z 00000KT 10SM CLR 22/14 A3008 RMK AO2 SLP174 T02170139 $
KBZN10.005 7.200.606.6VFRKBZN 211556Z 15005KT 10SM CLR 07/01 A3048 RMK AO2 SLP331 T00720006
KCMA6.000 HAZE 20.0016.103.9VFRKCMA 211615Z 00000KT 6SM HZ SCT003 20/16 A3007 RMK AO2 T02000161
KCNO10.000 24.4013.9010.5VFRKCNO 211553Z COR 00000KT 10SM CLR 24/14 A3010 RMK AO2 SLP188 T02440139
KCOS10.004 11.101.709.4VFRKCOS 211554Z 24004KT 10SM SCT035 SCT200 11/02 A3062 RMK AO2 SLP337 T01110017
KCPR10.0014 10.001.108.9VFRKCPR 211553Z 21014KT 10SM CLR 10/01 A3052 RMK AO2 SLP332 T01000011
KCRQ10.000 22.2016.106.1VFRKCRQ 211553Z AUTO 00000KT 10SM CLR 22/16 A3004 RMK AO2 SLP171 T02220161
KDEN10.006 11.700.6011.1VFRKDEN 211553Z 02006KT 10SM FEW060 FEW200 12/01 A3058 RMK AO2 SLP322 T01170006
KEGE10.000 6.70-5.6012.3VFRKEGE 211556Z 00000KT 10SM CLR 07/M06 A3062 RMK AO2 SLP366 T00671056 PNO $
KELP10.0013 23.905.6018.3VFRKELP 211551Z 05013KT 10SM FEW250 24/06 A3033 RMK AO2 SLP197 T02390056
KEMT10.000 22.0014.008VFRKEMT 211545Z 00000KT 10SM CLR 22/14 A3007
KEUG10.005 13.3010.602.7VFRKEUG 211554Z 35005KT 10SM FEW250 13/11 A3015 RMK AO2 SLP208 T01330106
KFAT7.005 1300020.6011.109.5VFRKFAT 211553Z 11005KT 7SM BKN130 21/11 A3011 RMK AO2 SLP191 FU BKN130 MTNS OBSC FU HZ DSNT N-E-S T02060111 $
KFLG10.009 16.10-2.2018.3VFRKFLG 211557Z 10009KT 10SM CLR 16/M02 A3053 RMK AO2 SLP262 T01611022
KFMN10.003 13.30-6.7020VFRKFMN 211553Z 03003KT 10SM CLR 13/M07 A3048 RMK AO2 SLP291 T01331067
KFUL9.000 22.8017.805VFRKFUL 211553Z 00000KT 9SM CLR 23/18 A3005 RMK AO2 SLP175 T02280178
KGCN10.001021 16.70-6.7023.4VFRKGCN 211554Z 06010G21KT 10SM CLR 17/M07 A3052 RMK AO2 SLP267 T01671067
KGEG10.006 9.405.004.4VFRKGEG 211553Z 05006KT 10SM CLR 09/05 A3039 RMK AO2 SLP294 T00940050
KGJT10.004 14.40-3.3017.7VFRKGJT 211553Z 15004KT 10SM CLR 14/M03 A3051 RMK AO2 SLP299 T01441033
KGPI10.000 5.604.401.2VFRKGPI 211555Z 00000KT 10SM FEW001 06/04 A3043 RMK AO2 SLP318 T00560044
KHHR9.004 21.1016.704.4VFRKHHR 211553Z AUTO 26004KT 9SM CLR 21/17 A3007 RMK AO2 SLP181 T02110167
KHLN10.000 8.300.008.3VFRKHLN 211553Z 00000KT 10SM CLR 08/00 A3043 RMK AO2 SLP323 T00830000 $
KHND10.004 22.80-3.3026.1VFRKHND 211556Z 06004KT 10SM CLR 23/M03 A3032 RMK AO2 SLP265 T02281033
KIFP10.002026 28.00-4.0032VFRKIFP 211548Z 36020G26KT 10SM CLR 28/M04 A3014
KINS10.005 21.60-6.2027.8VFRKINS 211558Z AUTO 13005KT 10SM CLR 22/M06 A3034 RMK AO2 SLP238 T02161062 $
KJAC10.000 2.80-1.704.5VFRKJAC 211556Z 00000KT 10SM CLR 03/M02 A3059 RMK AO2 SLP381 T00281017
KLAS10.003 23.30-3.3026.6VFRKLAS 211556Z 09003KT 10SM CLR 23/M03 A3029 RMK AO2 SLP238 T02331033
KLAX7.005 21.7017.204.5VFRKLAX 211553Z 25005KT 7SM FEW010 22/17 A3007 RMK AO2 SLP180 T02170172
KLGB8.005 21.7017.204.5VFRKLGB 211553Z 31005KT 8SM CLR 22/17 A3006 RMK AO2 SLP180 T02170172
KLSV10.0010 25.00-5.4030.4VFRKLSV 211558Z AUTO 06010KT 10SM CLR 25/M05 A3027 RMK AO2 SLP232 T02501054 $
KMFR10.000 13.307.805.5VFRKMFR 211553Z 00000KT 10SM CLR 13/08 A3016 RMK AO2 SLP209 T01330078
KMHV10.001427 31.00-3.0034KMHV 202300Z AUTO 05014G27KT 10SM 31/M03 A3003 RMK A01
KMRY10.000 21.708.3013.4VFRKMRY 211554Z 00000KT 10SM CLR 22/08 A3007 RMK AO2 SLP193 T02170083
KMSO9.003 5005.003.301.7IFRKMSO 211608Z 29003KT 9SM OVC005 05/03 A3048 RMK AO2 T00500033 $
KMYF10.000 25.6016.109.5VFRKMYF 211553Z 00000KT 10SM CLR 26/16 A3005 RMK AO2 SLP172 T02560161
KNYL7.000 30.0012.2017.8VFRKNYL 211557Z 00000KT 7SM CLR 30/12 A3005 RMK AO2 SLP174 T03000122 $
KOAK10.000 21.7011.1010.6VFRKOAK 211553Z 00000KT 10SM FEW045 22/11 A3006 RMK AO2 SLP177 FU FEW045 T02170111
KOLM9.005 12.8011.101.7VFRKOLM 211628Z 04005KT 9SM SCT005 13/11 A3021 RMK AO2 T01280111
KONT10.000 26.7011.1015.6VFRKONT 211553Z 00000KT 10SM CLR 27/11 A3010 RMK AO2 SLP175 T02670111
KOTH10.004 18.3012.805.5VFRKOTH 211556Z 15004KT 10SM CLR 18/13 A3005 RMK AO2 SLP175 T01830128
KOXR6.000 HAZE 20.0016.103.9VFRKOXR 211551Z 00000KT 6SM HZ CLR 20/16 A3007 RMK AO2 SLP181 T02000161
KPAE10.003 12.809.403.4VFRKPAE 211553Z 36003KT 10SM CLR 13/09 A3023 RMK AO2 SLP238 T01280094
KPDX10.000 14.409.405VFRKPDX 211553Z 00000KT 10SM FEW200 14/09 A3017 RMK AO2 SLP215 T01440094
KPHX10.008 28.907.2021.7VFRKPHX 211551Z 07008KT 10SM CLR 29/07 A3010 RMK AO2 SLP174 T02890072
KPOC10.006 26.0013.0013VFRKPOC 211547Z VRB06KT 10SM CLR 26/13 A3010
KPRC10.003 18.903.3015.6VFRKPRC 211553Z 02003KT 10SM CLR 19/03 A3040 RMK AO2 SLP226 T01890033
KPSC10.004 10.606.703.9VFRKPSC 211553Z 35004KT 10SM CLR 11/07 A3035 RMK AO2 SLP278 T01060067
KPSP10.003 32.204.4027.8VFRKPSP 211553Z VRB03KT 10SM CLR 32/04 A3009 RMK AO2 SLP183 T03220044
KRAL10.003 23.9011.1012.8VFRKRAL 211553Z 04003KT 10SM CLR 24/11 A3010 RMK AO2 SLP177 T02390111
KRDD10.000 SMOKE 21.702.8018.9VFRKRDD 211553Z 00000KT 10SM FU CLR 22/03 A3009 RMK AO2 SLP184 T02170028
KRIV10.003 24.0013.0011VFRKRIV 211558Z 09003KT 10SM CLR 24/13 A3012 RMK AO2A SLPNO ALSTG ESTMD
KRNM10.000 30.006.1023.9VFRKRNM 211553Z 00000KT 10SM CLR 30/06 A3010 RMK AO2 SLP175 T03000061
KRNO10.000 12.80-4.4017.2VFRKRNO 211555Z 00000KT 10SM CLR 13/M04 A3041 RMK AO2 SLP266 FU ALF DSNT SE THRU SW AND NW T01281044
KSAC10.000 21.109.4011.7VFRKSAC 211553Z 00000KT 10SM CLR 21/09 A3009 RMK AO2 SLP188 T02110094
KSAN10.003 24.4016.108.3VFRKSAN 211551Z 34003KT 10SM CLR 24/16 A3006 RMK AO2 SLP177 T02440161
KSBA3.003 300MIST 17.8016.101.7LIFRKSBA 211553Z VRB03KT 3SM BR OVC003 18/16 A3007 RMK AO2 SLP181 T01780161 $
KSBD6.003 HAZE 25.006.0019VFRKSBD 211551Z 04003KT 6SM HZ CLR 25/06 A3011
KSBP10.000 18.9012.206.7VFRKSBP 211556Z 00000KT 10SM CLR 19/12 A3007 RMK AO2 SLP180 T01890122
KSDM7.000 27.2022.205VFRKSDM 211553Z COR 00000KT 7SM CLR 27/22 A3005 RMK AO2 SLP171 T02720222
KSEA10.005 13.309.403.9VFRKSEA 211553Z 36005KT 10SM FEW020 13/09 A3022 RMK AO2 SLP240 T01330094
KSEE10.000 21.0015.006VFRKSEE 211547Z 00000KT 10SM SKC 21/15 A3006
KSFO10.000 21.1013.307.8VFRKSFO 211556Z 00000KT 10SM CLR 21/13 A3005 RMK AO2 SLP177 T02110133
KSJC10.000 480020.606.7013.9VFRKSJC 211553Z 00000KT 10SM SCT030 OVC048 21/07 A3006 RMK AO2 SLP178 FU SCT030 FU OVC048 T02060067
KSLC10.007 13.90-2.2016.1VFRKSLC 211554Z 16007KT 10SM FEW030 FEW200 14/M02 A3051 RMK AO2 SLP309 FU FEW030 FU DSNT SW-W T01391022
KSMF9.000 19.406.7012.7VFRKSMF 211553Z 00000KT 9SM CLR 19/07 A3008 RMK AO2 SLP186 T01940067
KSMO10.004 20.0016.103.9VFRKSMO 211551Z 25004KT 10SM CLR 20/16 A3007 RMK AO2 SLP181 T02000161
KSMX8.000 17.2012.205VFRKSMX 211551Z 00000KT 8SM CLR 17/12 A3007 RMK AO2 SLP185 T01720122 $
KSNA9.000 22.8017.205.6VFRKSNA 211553Z 00000KT 9SM CLR 23/17 A3006 RMK AO2 SLP177 T02280172
KSUN10.0010 7.00-1.008VFRKSUN 211547Z 31010KT 10SM SKC 07/M01 A3055
KTOA7.003 25.0023.002VFRKTOA 211547Z 25003KT 7SM SKC 25/23 A3007
KTPH10.003 15.60-11.1026.7VFRKTPH 211556Z AUTO 06003KT 10SM CLR 16/M11 A3045 RMK AO2 SLP263 T01561111
KTUS10.008 26.1010.0016.1VFRKTUS 211553Z 13008KT 10SM CLR 26/10 A3022 RMK AO2 SLP188 T02610100
KVCV10.000 22.00-1.0023VFRKVCV 211545Z AUTO 00000KT 10SM CLR 22/M01 A3027
KVGT10.009 25.00-3.3028.3VFRKVGT 211553Z 31009KT 10SM CLR 25/M03 A3027 RMK AO2 SLP247 T02501033
KVNY10.000 23.3013.909.4VFRKVNY 211551Z 00000KT 10SM CLR 23/14 A3008 RMK AO2 SLP177 T02330139
KWHP10.000 25.0011.0014VFRKWHP 211550Z 00000KT 10SM SKC 25/11 A3012
KWJF10.000 19.40-2.8022.2VFRKWJF 211556Z 00000KT 10SM CLR 19/M03 A3024 RMK AO2 SLP229 T01941028
KYKM5.005 HAZE SMOKE 11.701.7010MVFRKYKM 211553Z 26005KT 5SM HZ FU CLR 12/02 A3035 RMK AO2 SLP278 T01170017